West Lafayette, IN

9:50 PM EST on January 18, 2017 (GMT -0500)
Lindberg Village | | Change Station
Active Advisory: Flood Warning

Elev 614 ft 40.45 °N, 86.97 °W | Updated 0 second ago

Overcast
Overcast
36.3 °F
Feels Like 36 °F
N
1.0
Wind Variable Wind from North
Gusts 3.2 mph

Today
High -- | Low -- °F
--% Chance of Precip.
Yesterday
High -- | Low -- °F
Precip. -- in
Pressure 30.14 in
Visibility 10.0 miles
Clouds Overcast 1100 ft
Windchill 36 °F
Dew Point 35 °F
Humidity 95%
Rainfall 0.00 in
Snow Depth Not available.
8:07 AM 5:49 PM
Waning Gibbous, 58% visible
METAR KLAF 190154Z 21005KT 10SM OVC011 02/01 A3012 RMK AO2 SLP206 T00220011
Pressure 30.14 in
Visibility 10.0 miles
Clouds Overcast 1100 ft
Windchill 36 °F
Dew Point 35 °F
Humidity 95%
Rainfall 0.00 in
Snow Depth Not available.
8:07 AM 5:49 PM
Waning Gibbous, 58% visible
METAR KLAF 190154Z 21005KT 10SM OVC011 02/01 A3012 RMK AO2 SLP206 T00220011

Get Your Daily Forecast Email!

Thanks for signing up!

Be on the lookout for a verification email in your inbox.

You'll start receiving the daily forecast at 8 AM.

×

10-Day Weather Forecast

Almanac

Astronomy

Jan. 18, 2017 Rise Set
Actual Time
Civil Twilight
Nautical Twilight
Astronomical Twilight
Moon
Length of Visible Light
Length of Day
Tomorrow will be .
, % of the Moon is Illuminated

Today's Extremes

State Highs State Lows

Community

WunderPhotos

Upload Photos

1,962,540 photos uploaded!

WunderBlog® & News

Nearby

Air Quality

  Air Quality AQ Index Pollutant
Not available.

Snow Depth

Station Depth Elevation

Earthquake Activity

City Distance Mag. Time & Date
Minimum magnitude displayed is 2.5.

Coastal Water Temperatures

Place Temperature

Stations

Nearby Weather Stations

Station Location Temp. Windchill Dew Point Humidity Wind Precip. Elev Updated Type
                   

Watches & Warnings

Flood Warning
Issued: 5:01 PM GMT Jan. 18, 2017 – National Weather Service

The Flood Warning continues for
the Wabash River at Lafayette.
* Until further notice.
* At 11:30 am Wednesday the stage was 14.9 feet.
* Flood stage is 11.0 feet.
* Minor flooding is occurring and minor flooding is forecast.
* Forecast... the river will continue rising to near 14.9 feet by this
evening then begin falling.
* At 16.0 feet... lowland flooding is in progress. Flood waters near
sr 225 between old sr 25 and battleground. Warren CR 350 N near
Black Rock preserve and Tippecanoe CR 950 W in the Wabash bottoms,
janssen tract area may be impassable. Fort ouiatenon grounds begin
to flood. Flooding at the Grandville public access site.


Lat... Lon 4056 8673 4048 8688 4040 8709 4033 8709
      4040 8688 4054 8670